createdAt,value
2022-08-05T00:00:17.257Z,20.00
2022-08-05T00:02:50.856Z,20.02
2022-08-05T00:06:03.179Z,20.01
2022-08-05T00:08:32.966Z,19.98
2022-08-05T00:10:56.530Z,19.98
2022-08-05T00:13:38.250Z,19.96
2022-08-05T00:16:08.718Z,19.93
2022-08-05T00:18:36.223Z,19.98
2022-08-05T00:21:06.887Z,19.93
2022-08-05T00:23:45.973Z,19.88
2022-08-05T00:26:20.212Z,19.89
2022-08-05T00:28:46.837Z,19.84
2022-08-05T00:31:16.464Z,19.84
2022-08-05T00:34:55.196Z,19.84
2022-08-05T00:37:10.275Z,19.76
2022-08-05T00:39:41.634Z,19.71
2022-08-05T00:42:31.699Z,19.67
2022-08-05T00:44:59.391Z,19.61
2022-08-05T00:47:26.343Z,19.52
2022-08-05T00:50:12.824Z,19.50
2022-08-05T00:52:40.114Z,19.45
2022-08-05T00:55:06.907Z,19.44
2022-08-05T00:57:55.256Z,19.29
2022-08-05T01:00:20.112Z,19.27
2022-08-05T01:02:50.201Z,19.29
2022-08-05T01:05:16.900Z,19.29
2022-08-05T01:08:40.111Z,19.26
2022-08-05T01:10:41.995Z,19.19
2022-08-05T01:13:27.537Z,19.16
2022-08-05T01:16:26.134Z,19.11
2022-08-05T01:19:00.819Z,19.01
2022-08-05T01:21:38.080Z,18.99
2022-08-05T01:24:22.048Z,19.01
2022-08-05T01:27:25.548Z,18.94
2022-08-05T01:29:56.244Z,18.95
2022-08-05T01:32:27.540Z,18.94
2022-08-05T01:34:58.667Z,18.85
2022-08-05T01:37:55.177Z,18.80
2022-08-05T01:40:28.960Z,18.84
2022-08-05T01:42:59.016Z,18.82
2022-08-05T01:45:27.786Z,18.79
2022-08-05T01:48:03.199Z,18.71
2022-08-05T01:50:39.965Z,18.61
2022-08-05T01:53:13.014Z,18.57
2022-08-05T01:55:43.340Z,18.52
2022-08-05T01:58:15.716Z,18.50
2022-08-05T02:00:49.359Z,18.43
2022-08-05T02:03:31.795Z,18.42
2022-08-05T02:06:03.392Z,18.39
2022-08-05T02:08:31.635Z,18.36
2022-08-05T02:11:12.574Z,18.37
2022-08-05T02:13:55.136Z,18.34
2022-08-05T02:16:27.589Z,18.35
2022-08-05T02:19:15.831Z,18.25
2022-08-05T02:21:52.428Z,18.24
2022-08-05T02:24:23.388Z,18.19
2022-08-05T02:26:54.939Z,18.14
2022-08-05T02:29:59.233Z,18.19
2022-08-05T02:32:19.875Z,18.14
2022-08-05T02:34:54.937Z,18.13
2022-08-05T02:37:23.789Z,18.06
2022-08-05T02:39:52.580Z,18.04
2022-08-05T02:42:25.818Z,17.93
2022-08-05T02:44:53.252Z,17.90
2022-08-05T02:47:21.576Z,17.83
2022-08-05T02:49:49.095Z,17.85
2022-08-05T02:52:29.798Z,17.78
2022-08-05T02:54:58.622Z,17.81
2022-08-05T02:58:09.458Z,17.76
2022-08-05T03:00:17.246Z,17.79
2022-08-05T03:02:46.639Z,17.77
2022-08-05T03:05:14.576Z,17.65
2022-08-05T03:08:06.811Z,17.70
2022-08-05T03:10:29.061Z,17.80
2022-08-05T03:15:23.507Z,17.70
2022-08-05T03:17:53.918Z,17.68
2022-08-05T03:20:22.034Z,17.76
2022-08-05T03:22:50.588Z,17.69
2022-08-05T03:25:32.512Z,17.60
2022-08-05T03:28:08.938Z,17.51
2022-08-05T03:30:36.793Z,17.59
2022-08-05T03:33:06.362Z,17.40
2022-08-05T03:35:41.022Z,17.40
2022-08-05T03:38:10.405Z,17.29
2022-08-05T03:40:41.115Z,17.27
2022-08-05T03:43:15.975Z,17.25
2022-08-05T03:45:59.518Z,17.24
2022-08-05T03:48:29.233Z,17.28
2022-08-05T03:52:34.876Z,17.36
2022-08-05T03:55:51.171Z,17.37
2022-08-05T03:57:15.966Z,17.37
2022-08-05T04:00:05.763Z,17.41
2022-08-05T04:02:45.204Z,17.36
2022-08-05T04:05:24.556Z,17.44
2022-08-05T04:07:57.987Z,17.49
2022-08-05T04:10:27.772Z,17.44
2022-08-05T04:12:58.757Z,17.47
2022-08-05T04:15:28.001Z,17.48
2022-08-05T04:18:02.081Z,17.51
2022-08-05T04:20:28.738Z,17.55
2022-08-05T04:22:55.284Z,17.51
2022-08-05T04:25:38.437Z,17.57
2022-08-05T04:28:11.377Z,17.61
2022-08-05T04:30:39.656Z,17.67
2022-08-05T04:33:06.338Z,17.73
2022-08-05T04:36:16.625Z,17.79
2022-08-05T04:38:21.037Z,17.87
2022-08-05T04:40:50.971Z,17.92
2022-08-05T04:43:17.891Z,18.00
2022-08-05T04:45:55.596Z,18.09
2022-08-05T04:48:27.570Z,18.17
2022-08-05T04:51:01.637Z,18.24
2022-08-05T04:53:33.347Z,18.34
2022-08-05T04:56:32.931Z,18.43
2022-08-05T04:58:49.250Z,18.55
2022-08-05T05:01:15.944Z,18.66
2022-08-05T05:04:02.416Z,18.79
2022-08-05T05:06:39.072Z,18.90
2022-08-05T05:09:14.310Z,19.03
2022-08-05T05:11:54.480Z,19.16
2022-08-05T05:14:27.928Z,19.31
2022-08-05T05:16:58.734Z,19.43
2022-08-05T05:19:27.383Z,19.57
2022-08-05T05:22:03.590Z,19.70
2022-08-05T05:24:56.442Z,19.84
2022-08-05T05:27:41.396Z,20.01
2022-08-05T05:30:15.693Z,20.19
2022-08-05T05:32:56.807Z,20.36
2022-08-05T05:35:24.371Z,20.49
2022-08-05T05:37:59.726Z,20.61
2022-08-05T05:40:28.678Z,20.76
2022-08-05T05:42:57.584Z,20.93
2022-08-05T05:45:24.831Z,21.08
2022-08-05T05:48:05.618Z,21.21
2022-08-05T05:50:35.742Z,21.35
2022-08-05T05:53:21.496Z,21.46
2022-08-05T05:55:52.364Z,21.56
2022-08-05T05:58:30.272Z,21.66
2022-08-05T06:01:04.881Z,21.76
2022-08-05T06:04:00.664Z,21.84
2022-08-05T06:06:31.210Z,21.92
2022-08-05T06:08:59.820Z,22.03
2022-08-05T06:11:26.349Z,22.11
2022-08-05T06:13:55.815Z,22.20
2022-08-05T06:16:30.547Z,22.29
2022-08-05T06:19:05.377Z,22.38
2022-08-05T06:21:36.747Z,22.47
2022-08-05T06:24:11.402Z,22.57
2022-08-05T06:26:51.201Z,22.65
2022-08-05T06:29:26.488Z,22.74
2022-08-05T06:32:21.020Z,22.80
2022-08-05T06:34:53.537Z,22.89
2022-08-05T06:37:39.443Z,23.02
2022-08-05T06:40:09.885Z,23.15
2022-08-05T06:42:36.982Z,23.27
2022-08-05T06:45:08.661Z,23.33
2022-08-05T06:48:36.207Z,23.42
2022-08-05T06:50:23.054Z,23.53
2022-08-05T06:52:58.777Z,23.62
2022-08-05T06:55:36.487Z,23.71
2022-08-05T06:58:29.593Z,23.80
2022-08-05T07:00:51.310Z,23.90
2022-08-05T07:03:18.482Z,23.99
2022-08-05T07:05:46.429Z,24.12
2022-08-05T07:08:13.390Z,24.21
2022-08-05T07:10:53.201Z,24.35
2022-08-05T07:13:58.457Z,24.47
2022-08-05T07:17:56.545Z,24.60
2022-08-05T07:22:28.233Z,24.87
2022-08-05T07:25:23.803Z,24.94
2022-08-05T07:27:58.373Z,25.09
2022-08-05T07:30:33.738Z,25.22
2022-08-05T07:33:09.255Z,25.34
2022-08-05T07:36:01.995Z,25.47
2022-08-05T07:38:34.420Z,25.61
2022-08-05T07:42:07.098Z,25.74
2022-08-05T07:43:59.136Z,25.87
2022-08-05T07:46:26.963Z,26.03
2022-08-05T07:49:02.504Z,26.16
2022-08-05T07:51:40.208Z,26.27
2022-08-05T07:54:10.050Z,26.38
2022-08-05T07:56:39.230Z,26.52
2022-08-05T07:59:38.808Z,26.64
2022-08-05T08:02:10.572Z,26.77
2022-08-05T08:04:45.230Z,26.87
2022-08-05T08:07:12.835Z,27.01
2022-08-05T08:09:39.368Z,27.17
2022-08-05T08:12:15.911Z,27.27
2022-08-05T08:14:52.743Z,27.39
2022-08-05T08:17:19.608Z,27.48
2022-08-05T08:20:21.697Z,27.61
2022-08-05T08:22:35.494Z,27.72
2022-08-05T08:25:02.774Z,27.83
2022-08-05T08:27:40.021Z,27.94
2022-08-05T08:30:28.520Z,28.08
2022-08-05T08:33:02.411Z,28.19
2022-08-05T08:35:35.183Z,28.27
2022-08-05T08:38:07.855Z,28.45
2022-08-05T08:40:35.874Z,28.62
2022-08-05T08:45:16.248Z,28.72
2022-08-05T08:45:52.770Z,28.83
2022-08-05T08:48:22.362Z,28.93
2022-08-05T08:52:01.853Z,29.11
2022-08-05T08:53:53.995Z,29.24
2022-08-05T08:56:22.196Z,29.40
2022-08-05T08:58:49.580Z,29.54
2022-08-05T09:01:19.013Z,29.68
2022-08-05T09:03:54.507Z,29.81
2022-08-05T09:06:24.262Z,29.95
2022-08-05T09:08:55.385Z,30.04
2022-08-05T09:11:51.783Z,30.17
2022-08-05T09:14:59.091Z,30.26
2022-08-05T09:16:56.699Z,30.42
2022-08-05T09:19:27.678Z,30.54
2022-08-05T09:22:22.209Z,30.62
2022-08-05T09:24:44.803Z,30.75
2022-08-05T09:28:05.427Z,30.80
2022-08-05T09:30:24.077Z,30.93
2022-08-05T09:32:51.222Z,31.04
2022-08-05T09:35:26.459Z,31.15
2022-08-05T09:38:12.516Z,31.23
2022-08-05T09:40:51.901Z,31.32
2022-08-05T09:43:41.619Z,31.47
2022-08-05T09:46:30.683Z,31.64
2022-08-05T09:49:08.358Z,31.80
2022-08-05T09:51:45.011Z,31.94
2022-08-05T09:54:21.423Z,32.00
2022-08-05T09:56:55.534Z,32.02
2022-08-05T09:59:24.488Z,32.10
2022-08-05T10:01:55.531Z,32.13
2022-08-05T10:04:38.638Z,32.22
2022-08-05T10:07:32.019Z,32.37
2022-08-05T10:10:14.283Z,32.50
2022-08-05T10:12:51.582Z,32.57
2022-08-05T10:15:21.035Z,32.74
2022-08-05T10:18:08.760Z,32.85
2022-08-05T10:20:48.753Z,32.96
2022-08-05T10:23:55.233Z,33.01
2022-08-05T10:26:14.007Z,33.05
2022-08-05T10:28:46.355Z,33.15
2022-08-05T10:32:53.122Z,33.21
2022-08-05T10:34:02.403Z,33.27
2022-08-05T10:36:29.871Z,33.41
2022-08-05T10:39:05.107Z,33.59
2022-08-05T10:42:01.003Z,33.78
2022-08-05T10:44:29.453Z,33.92
2022-08-05T10:46:56.960Z,34.04
2022-08-05T10:49:27.531Z,34.18
2022-08-05T10:52:03.222Z,34.38
2022-08-05T10:55:06.840Z,34.41
2022-08-05T10:57:35.002Z,34.45
2022-08-05T11:00:23.100Z,34.62
2022-08-05T11:03:24.893Z,34.78
2022-08-05T11:06:16.135Z,34.91
2022-08-05T11:09:32.211Z,34.89
2022-08-05T11:12:23.551Z,34.87
2022-08-05T11:15:19.338Z,34.94
2022-08-05T11:17:57.268Z,34.94
2022-08-05T11:20:44.314Z,34.85
2022-08-05T11:23:33.444Z,34.93
2022-08-05T11:26:28.610Z,35.08
2022-08-05T11:29:06.714Z,35.19
2022-08-05T11:31:58.871Z,35.37
2022-08-05T11:34:39.873Z,35.49
2022-08-05T11:38:37.243Z,35.52
2022-08-05T11:41:00.815Z,35.69
2022-08-05T11:44:00.918Z,35.68
2022-08-05T11:46:32.319Z,35.76
2022-08-05T11:49:01.457Z,35.95
2022-08-05T11:51:44.667Z,36.08
2022-08-05T11:54:33.175Z,36.30
2022-08-05T11:57:02.262Z,36.34
2022-08-05T11:59:49.357Z,36.42
2022-08-05T12:02:29.855Z,36.49
2022-08-05T12:05:07.328Z,36.63
2022-08-05T12:08:09.060Z,36.69
2022-08-05T12:10:43.508Z,36.80
2022-08-05T12:13:18.664Z,36.99
2022-08-05T12:16:14.590Z,37.23
2022-08-05T12:18:49.449Z,37.44
2022-08-05T12:21:29.822Z,37.57
2022-08-05T12:24:08.579Z,37.43
2022-08-05T12:26:36.888Z,37.50
2022-08-05T12:29:09.377Z,37.58
2022-08-05T12:31:41.538Z,37.48
2022-08-05T12:34:20.519Z,37.48
2022-08-05T12:36:49.783Z,37.53
2022-08-05T12:39:17.682Z,37.70
2022-08-05T12:41:45.750Z,37.86
2022-08-05T12:44:28.531Z,37.83
2022-08-05T12:47:00.898Z,37.82
2022-08-05T12:50:03.353Z,37.87
2022-08-05T12:52:30.414Z,38.04
2022-08-05T12:55:02.203Z,38.09
2022-08-05T12:58:51.531Z,38.05
2022-08-05T13:02:00.182Z,37.90
2022-08-05T13:03:14.677Z,37.65
2022-08-05T13:05:41.529Z,37.60
2022-08-05T13:08:08.932Z,37.63
2022-08-05T13:10:48.790Z,37.61
2022-08-05T13:14:06.602Z,37.74
2022-08-05T13:16:12.675Z,37.89
2022-08-05T13:19:01.456Z,38.00
2022-08-05T13:21:47.724Z,38.21
2022-08-05T13:24:36.248Z,38.34
2022-08-05T13:27:03.831Z,38.43
2022-08-05T13:29:37.762Z,38.51
2022-08-05T13:32:05.512Z,38.65
2022-08-05T13:34:32.683Z,38.78
2022-08-05T13:37:00.262Z,38.90
2022-08-05T13:40:13.761Z,39.04
2022-08-05T13:42:15.249Z,39.08
2022-08-05T13:44:45.839Z,38.99
2022-08-05T13:47:34.583Z,38.77
2022-08-05T13:50:04.598Z,38.88
2022-08-05T13:52:35.489Z,39.05
2022-08-05T13:55:02.960Z,39.05
2022-08-05T13:57:51.483Z,39.17
2022-08-05T14:00:27.505Z,39.25
2022-08-05T14:02:56.444Z,39.24
2022-08-05T14:05:48.278Z,39.35
2022-08-05T14:08:20.432Z,39.46
2022-08-05T14:10:48.264Z,39.82
2022-08-05T14:13:15.418Z,40.04
2022-08-05T14:16:08.520Z,40.43
2022-08-05T14:18:28.880Z,41.11
2022-08-05T14:20:55.459Z,41.62
2022-08-05T14:23:25.109Z,42.07
2022-08-05T14:25:57.976Z,42.54
2022-08-05T14:28:28.702Z,42.82
2022-08-05T14:30:56.621Z,42.89
2022-08-05T14:33:23.877Z,42.94
2022-08-05T14:35:51.715Z,42.67
2022-08-05T14:38:31.987Z,42.11
2022-08-05T14:41:06.638Z,42.12
2022-08-05T14:44:01.689Z,42.37
2022-08-05T14:46:29.110Z,42.74
2022-08-05T14:48:57.255Z,43.10
2022-08-05T14:51:24.309Z,43.49
2022-08-05T14:54:26.449Z,43.97
2022-08-05T14:56:44.032Z,44.65
2022-08-05T14:59:11.538Z,44.97
2022-08-05T15:01:48.357Z,45.58
2022-08-05T15:04:17.392Z,45.89
2022-08-05T15:06:49.370Z,46.04
2022-08-05T15:09:51.618Z,46.07
2022-08-05T15:12:08.903Z,46.53
2022-08-05T15:14:48.136Z,46.65
2022-08-05T15:17:45.580Z,45.85
2022-08-05T15:20:04.907Z,43.80
2022-08-05T15:22:31.587Z,42.92
2022-08-05T15:24:59.307Z,42.49
2022-08-05T15:27:26.115Z,42.00
2022-08-05T15:29:59.159Z,41.52
2022-08-05T15:32:27.520Z,41.19
2022-08-05T15:34:55.467Z,40.88
2022-08-05T15:38:32.299Z,40.60
2022-08-05T15:40:59.159Z,40.42
2022-08-05T15:43:01.616Z,40.27
2022-08-05T15:45:39.012Z,40.00
2022-08-05T15:48:05.834Z,39.94
2022-08-05T15:50:33.537Z,39.54
2022-08-05T15:53:05.136Z,39.24
2022-08-05T15:56:01.805Z,38.90
2022-08-05T15:58:19.323Z,38.97
2022-08-05T16:01:03.546Z,38.70
2022-08-05T16:03:36.364Z,38.41
2022-08-05T16:06:08.767Z,38.24
2022-08-05T16:08:38.565Z,38.16
2022-08-05T16:11:05.318Z,38.17
2022-08-05T16:13:34.758Z,38.22
2022-08-05T16:16:03.330Z,38.03
2022-08-05T16:18:30.948Z,37.85
2022-08-05T16:20:58.592Z,37.70
2022-08-05T16:23:28.402Z,37.50
2022-08-05T16:26:14.920Z,37.45
2022-08-05T16:28:42.050Z,37.53
2022-08-05T16:31:10.506Z,37.58
2022-08-05T16:33:41.537Z,37.50
2022-08-05T16:36:09.090Z,37.49
2022-08-05T16:38:36.987Z,37.41
2022-08-05T16:42:24.142Z,37.44
2022-08-05T16:43:56.440Z,37.69
2022-08-05T16:46:24.603Z,38.19
2022-08-05T16:48:51.977Z,38.44
2022-08-05T16:51:19.317Z,38.72
2022-08-05T16:54:03.885Z,38.80
2022-08-05T16:56:36.910Z,38.76
2022-08-05T16:59:10.137Z,38.82
2022-08-05T17:01:53.177Z,38.81
2022-08-05T17:04:22.005Z,38.83
2022-08-05T17:06:53.384Z,38.87
2022-08-05T17:09:20.493Z,38.78
2022-08-05T17:11:48.391Z,38.66
2022-08-05T17:14:34.457Z,38.44
2022-08-05T17:17:04.920Z,38.36
2022-08-05T17:19:31.568Z,38.19
2022-08-05T17:21:58.565Z,37.94
2022-08-05T17:24:35.126Z,37.53
2022-08-05T17:27:07.134Z,36.94
2022-08-05T17:29:41.142Z,36.43
2022-08-05T17:32:16.706Z,35.78
2022-08-05T17:34:46.240Z,35.57
2022-08-05T17:37:29.532Z,35.33
2022-08-05T17:40:10.196Z,35.02
2022-08-05T17:42:41.789Z,34.77
2022-08-05T17:45:20.379Z,34.48
2022-08-05T17:47:54.037Z,34.26
2022-08-05T17:50:28.504Z,34.05
2022-08-05T17:52:59.064Z,33.74
2022-08-05T17:55:37.400Z,33.37
2022-08-05T17:58:12.564Z,33.14
2022-08-05T18:00:47.456Z,32.85
2022-08-05T18:03:33.256Z,32.51
2022-08-05T18:06:06.142Z,32.44
2022-08-05T18:08:44.092Z,32.31
2022-08-05T18:11:11.278Z,32.22
2022-08-05T18:13:51.631Z,32.14
2022-08-05T18:16:20.558Z,31.75
2022-08-05T18:18:48.083Z,31.66
2022-08-05T18:21:19.862Z,31.29
2022-08-05T18:23:53.774Z,31.25
2022-08-05T18:26:27.449Z,31.25
2022-08-05T18:28:56.903Z,31.02
2022-08-05T18:31:24.248Z,30.75
2022-08-05T18:33:52.120Z,30.43
2022-08-05T18:36:19.180Z,30.41
2022-08-05T18:38:46.498Z,30.16
2022-08-05T18:41:56.463Z,29.90
2022-08-05T18:44:06.523Z,29.66
2022-08-05T18:46:34.621Z,29.43
2022-08-05T18:49:23.703Z,29.49
2022-08-05T18:52:15.827Z,29.48
2022-08-05T18:54:45.868Z,29.20
2022-08-05T18:57:15.367Z,28.86
2022-08-05T19:00:01.777Z,28.69
2022-08-05T19:02:29.644Z,28.42
2022-08-05T19:05:02.193Z,28.39
2022-08-05T19:07:49.864Z,28.37
2022-08-05T19:10:26.597Z,28.29
2022-08-05T19:12:58.476Z,28.22
2022-08-05T19:15:59.346Z,28.14
2022-08-05T19:18:21.944Z,28.00
2022-08-05T19:20:52.347Z,27.91
2022-08-05T19:24:06.053Z,27.77
2022-08-05T19:26:09.417Z,27.51
2022-08-05T19:28:42.095Z,27.15
2022-08-05T19:31:13.322Z,27.14
2022-08-05T19:33:48.453Z,27.02
2022-08-05T19:36:23.013Z,26.82
2022-08-05T19:38:49.535Z,26.56
2022-08-05T19:41:16.107Z,26.36
2022-08-05T19:44:05.475Z,26.16
2022-08-05T19:46:30.976Z,25.97
2022-08-05T19:49:03.161Z,25.88
2022-08-05T19:52:09.411Z,25.76
2022-08-05T19:54:31.285Z,25.55
2022-08-05T19:56:59.789Z,25.52
2022-08-05T19:59:54.586Z,25.51
2022-08-05T20:02:17.658Z,25.53
2022-08-05T20:04:45.797Z,25.55
2022-08-05T20:07:13.878Z,25.36
2022-08-05T20:09:55.076Z,25.31
2022-08-05T20:12:25.669Z,25.21
2022-08-05T20:14:53.229Z,25.06
2022-08-05T20:17:23.626Z,25.11
2022-08-05T20:19:57.401Z,25.06
2022-08-05T20:22:26.970Z,25.05
2022-08-05T20:24:55.415Z,25.07
2022-08-05T20:27:26.621Z,25.11
2022-08-05T20:29:57.873Z,25.23
2022-08-05T20:32:26.084Z,25.18
2022-08-05T20:34:52.775Z,25.07
2022-08-05T20:38:05.010Z,24.98
2022-08-05T20:40:06.820Z,25.04
2022-08-05T20:42:33.449Z,25.05
2022-08-05T20:45:02.640Z,24.89
2022-08-05T20:47:32.240Z,24.80
2022-08-05T20:49:59.507Z,24.73
2022-08-05T20:52:26.569Z,24.68
2022-08-05T20:54:59.579Z,24.69
2022-08-05T20:57:43.038Z,24.53
2022-08-05T21:00:41.563Z,24.48
2022-08-05T21:03:06.196Z,24.39
2022-08-05T21:05:47.581Z,24.27
2022-08-05T21:08:21.087Z,24.12
2022-08-05T21:10:53.568Z,24.18
2022-08-05T21:13:37.796Z,24.12
2022-08-05T21:16:06.896Z,24.10
2022-08-05T21:18:34.257Z,24.08
2022-08-05T21:21:02.439Z,24.00
2022-08-05T21:23:28.952Z,23.94
2022-08-05T21:26:04.238Z,23.91
2022-08-05T21:28:47.912Z,23.82
2022-08-05T21:31:18.350Z,23.76
2022-08-05T21:33:47.551Z,23.73
2022-08-05T21:36:19.041Z,23.64
2022-08-05T21:38:54.774Z,23.62
2022-08-05T21:41:21.547Z,23.60
2022-08-05T21:44:01.704Z,23.49
2022-08-05T21:46:31.058Z,23.27
2022-08-05T21:48:59.864Z,23.27
2022-08-05T21:52:22.105Z,23.20
2022-08-05T21:54:13.171Z,23.12
2022-08-05T21:56:44.204Z,23.12
2022-08-05T21:59:24.082Z,23.13
2022-08-05T22:01:54.572Z,23.11
2022-08-05T22:04:25.382Z,23.15
2022-08-05T22:06:52.577Z,23.19
2022-08-05T22:09:21.083Z,23.20
2022-08-05T22:11:48.973Z,23.19
2022-08-05T22:14:35.279Z,23.20
2022-08-05T22:17:06.614Z,23.22
2022-08-05T22:20:03.575Z,23.28
2022-08-05T22:22:26.801Z,23.23
2022-08-05T22:25:21.035Z,23.21
2022-08-05T22:28:08.827Z,23.12
2022-08-05T22:30:44.204Z,23.05
2022-08-05T22:33:57.699Z,23.01
2022-08-05T22:36:14.465Z,23.00
2022-08-05T22:38:42.569Z,22.98
2022-08-05T22:41:10.205Z,22.92
2022-08-05T22:43:38.279Z,22.91
2022-08-05T22:46:13.255Z,22.89
2022-08-05T22:48:40.969Z,22.87
2022-08-05T22:51:07.724Z,22.85
2022-08-05T22:53:35.580Z,22.88
2022-08-05T22:56:02.816Z,22.87
2022-08-05T22:58:29.323Z,22.86
2022-08-05T23:00:56.960Z,22.87
2022-08-05T23:03:59.078Z,22.84
2022-08-05T23:06:10.498Z,22.83
2022-08-05T23:08:37.044Z,22.81
2022-08-05T23:11:03.599Z,22.78
2022-08-05T23:13:30.121Z,22.71
2022-08-05T23:15:56.827Z,22.71
2022-08-05T23:18:23.504Z,22.73
2022-08-05T23:20:50.051Z,22.63
2022-08-05T23:23:16.659Z,22.58
2022-08-05T23:25:53.008Z,22.54
2022-08-05T23:28:28.735Z,22.52
2022-08-05T23:30:56.373Z,22.49
2022-08-05T23:34:04.983Z,22.47
2022-08-05T23:36:39.876Z,22.42
2022-08-05T23:39:17.491Z,22.40
2022-08-05T23:41:59.089Z,22.36
2022-08-05T23:44:28.056Z,22.33
2022-08-05T23:46:58.780Z,22.33
2022-08-05T23:49:33.919Z,22.32
2022-08-05T23:52:21.764Z,22.31
2022-08-05T23:54:52.540Z,22.25
2022-08-05T23:57:19.283Z,22.21
